HTZA/ZNZ METAR and TAF weather

Enter ICAO airport designator
Station Type Date Time Source
HTZA METAR 2022/09/26 10:00 UTC NOAA

HTZA 261000Z 19018KT 9999 SCT021 30/21 Q1016 NOSIG


Station Type Date Time Source
HTZA Decoded METAR 2022/09/26 10:00 UTC NOAA

Zanzibar / Kisauni, Tanzania (HTZA) 06-13S 039-13E 15M
Sep 26, 2022 - 06:00 AM EDT / 2022.09.26 1000 UTC
Wind: from the S (190 degrees) at 21 MPH (18 KT):0
Visibility: greater than 7 mile(s):0
Sky conditions: partly cloudy
Temperature: 86 F (30 C)
Dew Point: 69 F (21 C)
Relative Humidity: 58%
Pressure (altimeter): 30.00 in. Hg (1016 hPa)
ob: HTZA 261000Z 19018KT 9999 SCT021 30/21 Q1016 NOSIG
cycle: 10

Station Type Date Time Source
HTZA TAF 2022/09/26 18:36 UTC NOAA

HTZA 251700Z 2518/2618 14015KT 9999 SCT016

Example: see airport list